N888LU -KPHF
Flight info
| Callsign | N888LU |
|---|---|
| Flight time | N/A |
| Altitude | VFR |
| Route | VFR FF |
| Aircraft | C172/L-DOV/C |
Departure
| Time | N/A |
|---|---|
| Airport | - |
Arrival
| Time | 2026-04-29 01:41 |
|---|---|
| Airport | Newport News Williamsburg International Airport (KPHF) |
| Time | Latitude | Longitude | Altitude | Speed | Heading |
|---|---|---|---|---|---|
| 2026-04-29 01:12 | 37.70237 | -77.37125 | 2495 ft | 89 kts | 122° |
| 2026-04-29 01:12 | 37.69970 | -77.36404 | 2691 ft | 91 kts | 121° |
| 2026-04-29 01:12 | 37.69696 | -77.35674 | 2890 ft | 92 kts | 121° |
| 2026-04-29 01:13 | 37.69389 | -77.34968 | 3072 ft | 92 kts | 137° |
| 2026-04-29 01:13 | 37.69095 | -77.34587 | 3193 ft | 92 kts | 135° |
| 2026-04-29 01:13 | 37.68678 | -77.33967 | 3365 ft | 93 kts | 136° |
| 2026-04-29 01:13 | 37.68257 | -77.33337 | 3533 ft | 94 kts | 134° |
| 2026-04-29 01:14 | 37.67835 | -77.32696 | 3702 ft | 95 kts | 133° |
| 2026-04-29 01:14 | 37.67415 | -77.32055 | 3862 ft | 96 kts | 131° |
| 2026-04-29 01:14 | 37.66985 | -77.31399 | 4012 ft | 97 kts | 130° |
| 2026-04-29 01:14 | 37.66553 | -77.30735 | 4158 ft | 98 kts | 130° |
| 2026-04-29 01:15 | 37.66122 | -77.30074 | 4302 ft | 99 kts | 129° |
| 2026-04-29 01:15 | 37.65685 | -77.29399 | 4452 ft | 99 kts | 129° |
| 2026-04-29 01:15 | 37.65243 | -77.28717 | 4614 ft | 100 kts | 129° |
| 2026-04-29 01:15 | 37.64807 | -77.28044 | 4770 ft | 100 kts | 128° |
| 2026-04-29 01:16 | 37.64363 | -77.27358 | 4920 ft | 101 kts | 127° |
| 2026-04-29 01:16 | 37.63916 | -77.26667 | 5061 ft | 101 kts | 127° |
| 2026-04-29 01:16 | 37.63469 | -77.25979 | 5192 ft | 102 kts | 126° |
| 2026-04-29 01:16 | 37.63013 | -77.25277 | 5321 ft | 103 kts | 127° |
| 2026-04-29 01:17 | 37.62556 | -77.24573 | 5440 ft | 104 kts | 127° |
| 2026-04-29 01:17 | 37.62087 | -77.23851 | 5499 ft | 112 kts | 128° |
| 2026-04-29 01:17 | 37.61586 | -77.23082 | 5503 ft | 116 kts | 127° |
| 2026-04-29 01:17 | 37.61059 | -77.22272 | 5503 ft | 122 kts | 126° |
| 2026-04-29 01:18 | 37.60517 | -77.21437 | 5500 ft | 126 kts | 126° |
| 2026-04-29 01:18 | 37.59387 | -77.19697 | 5498 ft | 130 kts | 126° |
| 2026-04-29 01:18 | 37.58811 | -77.18809 | 5500 ft | 130 kts | 126° |
| 2026-04-29 01:19 | 37.58232 | -77.17920 | 5501 ft | 131 kts | 126° |
| 2026-04-29 01:19 | 37.57651 | -77.17026 | 5502 ft | 131 kts | 126° |
| 2026-04-29 01:19 | 37.57075 | -77.16140 | 5501 ft | 131 kts | 126° |
| 2026-04-29 01:19 | 37.56495 | -77.15247 | 5501 ft | 131 kts | 126° |
| 2026-04-29 01:20 | 37.55916 | -77.14357 | 5498 ft | 131 kts | 126° |
| 2026-04-29 01:20 | 37.55340 | -77.13470 | 5499 ft | 131 kts | 126° |
| 2026-04-29 01:20 | 37.54766 | -77.12589 | 5498 ft | 131 kts | 126° |
| 2026-04-29 01:20 | 37.54185 | -77.11696 | 5498 ft | 131 kts | 126° |
| 2026-04-29 01:21 | 37.53611 | -77.10814 | 5498 ft | 131 kts | 126° |
| 2026-04-29 01:21 | 37.53032 | -77.09927 | 5498 ft | 131 kts | 126° |
| 2026-04-29 01:21 | 37.52457 | -77.09043 | 5498 ft | 131 kts | 126° |
| 2026-04-29 01:21 | 37.51879 | -77.08156 | 5500 ft | 131 kts | 126° |
| 2026-04-29 01:22 | 37.51305 | -77.07276 | 5498 ft | 131 kts | 126° |
| 2026-04-29 01:22 | 37.50731 | -77.06394 | 5498 ft | 131 kts | 126° |
| 2026-04-29 01:22 | 37.50149 | -77.05504 | 5498 ft | 131 kts | 126° |
| 2026-04-29 01:22 | 37.49570 | -77.04616 | 5499 ft | 131 kts | 126° |
| 2026-04-29 01:23 | 37.48994 | -77.03731 | 5503 ft | 131 kts | 126° |
| 2026-04-29 01:23 | 37.48422 | -77.02855 | 5502 ft | 131 kts | 126° |
| 2026-04-29 01:23 | 37.47842 | -77.01967 | 5502 ft | 130 kts | 126° |
| 2026-04-29 01:23 | 37.47271 | -77.01092 | 5502 ft | 130 kts | 126° |
| 2026-04-29 01:24 | 37.46692 | -77.00207 | 5494 ft | 129 kts | 126° |
| 2026-04-29 01:24 | 37.46128 | -76.99342 | 5494 ft | 129 kts | 126° |
| 2026-04-29 01:24 | 37.45558 | -76.98470 | 5493 ft | 128 kts | 126° |
| 2026-04-29 01:24 | 37.44990 | -76.97600 | 5493 ft | 128 kts | 126° |
| 2026-04-29 01:25 | 37.44430 | -76.96744 | 5494 ft | 128 kts | 125° |
| 2026-04-29 01:25 | 37.43860 | -76.95873 | 5494 ft | 128 kts | 125° |
| 2026-04-29 01:25 | 37.43292 | -76.95006 | 5495 ft | 128 kts | 126° |
| 2026-04-29 01:25 | 37.42730 | -76.94147 | 5496 ft | 129 kts | 126° |
| 2026-04-29 01:26 | 37.42158 | -76.93272 | 5498 ft | 129 kts | 126° |
| 2026-04-29 01:26 | 37.41585 | -76.92397 | 5499 ft | 129 kts | 126° |
| 2026-04-29 01:26 | 37.41016 | -76.91529 | 5499 ft | 129 kts | 126° |
| 2026-04-29 01:26 | 37.40452 | -76.90668 | 5499 ft | 129 kts | 126° |
| 2026-04-29 01:27 | 37.40066 | -76.90078 | 5502 ft | 129 kts | 126° |
| 2026-04-29 01:27 | 37.39305 | -76.88918 | 5502 ft | 129 kts | 126° |
| 2026-04-29 01:27 | 37.38740 | -76.88055 | 5502 ft | 129 kts | 126° |
| 2026-04-29 01:27 | 37.38168 | -76.87183 | 5502 ft | 129 kts | 126° |
| 2026-04-29 01:28 | 37.37604 | -76.86323 | 5508 ft | 129 kts | 125° |
| 2026-04-29 01:28 | 37.37034 | -76.85454 | 5509 ft | 128 kts | 125° |
| 2026-04-29 01:28 | 37.36463 | -76.84584 | 5508 ft | 128 kts | 124° |
| 2026-04-29 01:28 | 37.35898 | -76.83724 | 5507 ft | 128 kts | 124° |
| 2026-04-29 01:29 | 37.35331 | -76.82860 | 5505 ft | 128 kts | 125° |
| 2026-04-29 01:29 | 37.34768 | -76.82003 | 5504 ft | 128 kts | 125° |
| 2026-04-29 01:29 | 37.34197 | -76.81134 | 5505 ft | 128 kts | 126° |
| 2026-04-29 01:29 | 37.33628 | -76.80267 | 5505 ft | 129 kts | 126° |
| 2026-04-29 01:30 | 37.33059 | -76.79402 | 5506 ft | 128 kts | 125° |
| 2026-04-29 01:30 | 37.32496 | -76.78545 | 5507 ft | 128 kts | 125° |
| 2026-04-29 01:30 | 37.31925 | -76.77678 | 5506 ft | 128 kts | 125° |
| 2026-04-29 01:30 | 37.31354 | -76.76810 | 5506 ft | 128 kts | 125° |
| 2026-04-29 01:31 | 37.30801 | -76.75949 | 5506 ft | 127 kts | 119° |
| 2026-04-29 01:31 | 37.30382 | -76.74975 | 5505 ft | 126 kts | 113° |
| 2026-04-29 01:31 | 37.29975 | -76.74002 | 5505 ft | 126 kts | 112° |
| 2026-04-29 01:31 | 37.29566 | -76.73025 | 5505 ft | 126 kts | 112° |
| 2026-04-29 01:32 | 37.29165 | -76.72063 | 5501 ft | 126 kts | 112° |
| 2026-04-29 01:32 | 37.28753 | -76.71076 | 5433 ft | 131 kts | 112° |
| 2026-04-29 01:32 | 37.28324 | -76.70042 | 5314 ft | 134 kts | 112° |
| 2026-04-29 01:32 | 37.27898 | -76.69007 | 5196 ft | 135 kts | 112° |
| 2026-04-29 01:33 | 37.27466 | -76.67955 | 5079 ft | 136 kts | 113° |
| 2026-04-29 01:33 | 37.27033 | -76.66897 | 4957 ft | 136 kts | 112° |
| 2026-04-29 01:33 | 37.26602 | -76.65842 | 4832 ft | 135 kts | 113° |
| 2026-04-29 01:33 | 37.26174 | -76.64786 | 4693 ft | 136 kts | 113° |
| 2026-04-29 01:34 | 37.25754 | -76.63732 | 4563 ft | 136 kts | 113° |
| 2026-04-29 01:34 | 37.25336 | -76.62665 | 4394 ft | 136 kts | 113° |
| 2026-04-29 01:34 | 37.24933 | -76.61601 | 4221 ft | 136 kts | 113° |
| 2026-04-29 01:34 | 37.24541 | -76.60518 | 4040 ft | 137 kts | 113° |
| 2026-04-29 01:35 | 37.24153 | -76.59415 | 3871 ft | 138 kts | 113° |
| 2026-04-29 01:35 | 37.23624 | -76.58429 | 3696 ft | 137 kts | 148° |
| 2026-04-29 01:35 | 37.22814 | -76.57826 | 3522 ft | 136 kts | 152° |
| 2026-04-29 01:35 | 37.22010 | -76.57183 | 3350 ft | 136 kts | 150° |
| 2026-04-29 01:36 | 37.21369 | -76.56331 | 3163 ft | 139 kts | 125° |
| 2026-04-29 01:36 | 37.20857 | -76.55303 | 2978 ft | 138 kts | 126° |
| 2026-04-29 01:36 | 37.20356 | -76.54291 | 2805 ft | 134 kts | 130° |
| 2026-04-29 01:36 | 37.19631 | -76.53689 | 2637 ft | 125 kts | 164° |
| 2026-04-29 01:37 | 37.18807 | -76.53362 | 2428 ft | 124 kts | 173° |
| 2026-04-29 01:37 | 37.17965 | -76.53232 | 2156 ft | 116 kts | 182° |
| 2026-04-29 01:37 | 37.17225 | -76.53262 | 2023 ft | 102 kts | 188° |
| 2026-04-29 01:37 | 37.16527 | -76.53350 | 1812 ft | 101 kts | 188° |
| 2026-04-29 01:38 | 37.15830 | -76.53450 | 1648 ft | 98 kts | 188° |
| 2026-04-29 01:38 | 37.15165 | -76.53576 | 1482 ft | 94 kts | 189° |
| 2026-04-29 01:38 | 37.14537 | -76.53690 | 1348 ft | 88 kts | 186° |
| 2026-04-29 01:38 | 37.13952 | -76.53730 | 1162 ft | 81 kts | 174° |
| 2026-04-29 01:39 | 37.13418 | -76.53589 | 978 ft | 74 kts | 161° |
| 2026-04-29 01:39 | 37.12977 | -76.53326 | 769 ft | 69 kts | 147° |
| 2026-04-29 01:39 | 37.12567 | -76.53018 | 654 ft | 67 kts | 143° |
| 2026-04-29 01:39 | 37.12188 | -76.52688 | 576 ft | 70 kts | 139° |
| 2026-04-29 01:40 | 37.11844 | -76.52235 | 477 ft | 72 kts | 109° |
| 2026-04-29 01:40 | 37.11813 | -76.51620 | 366 ft | 72 kts | 76° |
| 2026-04-29 01:40 | 37.12029 | -76.51075 | 262 ft | 66 kts | 60° |
| 2026-04-29 01:40 | 37.12263 | -76.50612 | 160 ft | 62 kts | 61° |
| 2026-04-29 01:41 | 37.12487 | -76.50165 | 75 ft | 60 kts | 62° |
| 2026-04-29 01:41 | 37.12681 | -76.49775 | 44 ft | 40 kts | 57° |
| 2026-04-29 01:41 | 37.12798 | -76.49545 | 45 ft | 25 kts | 56° |
| 2026-04-29 01:41 | 37.12853 | -76.49437 | 46 ft | 22 kts | 59° |
| 2026-04-29 01:42 | 37.12971 | -76.49207 | 45 ft | 17 kts | 51° |
| 2026-04-29 01:42 | 37.13064 | -76.49242 | 46 ft | 17 kts | 291° |
| 2026-04-29 01:42 | 37.13089 | -76.49384 | 46 ft | 17 kts | 283° |
| 2026-04-29 01:42 | 37.13118 | -76.49545 | 46 ft | 21 kts | 282° |
| 2026-04-29 01:43 | 37.13150 | -76.49722 | 48 ft | 17 kts | 283° |
| 2026-04-29 01:43 | 37.13175 | -76.49856 | 46 ft | 14 kts | 283° |
| 2026-04-29 01:43 | 37.13241 | -76.49893 | 46 ft | 14 kts | 13° |
| 2026-04-29 01:43 | 37.13296 | -76.49933 | 46 ft | 9 kts | 264° |
| 2026-04-29 01:44 | 37.13245 | -76.49989 | 46 ft | 7 kts | 194° |